Time;durP1;ratioP1;P1;durP2;ratioP2;P2;SDS_P1;SDS_P2;PMS_P1;PMS_P2;Temp;Humidity;BMP_temperature;BMP_pressure;BME280_temperature;BME280_humidity;BME280_pressure;Samples;Min_cycle;Max_cycle;Signal;HPM_P1;HPM_P2
2021/04/12 00:01:21;;;;;;;4.07;2.00;;;;;;;;;;4332423;33;20179;-78
2021/04/12 00:03:49;;;;;;;3.27;1.73;;;;;;;;;;4342821;33;20226;-79
2021/04/12 00:06:31;;;;;;;2.80;1.47;;;;;;;;;;4331773;33;20136;-78
2021/04/12 00:08:59;;;;;;;3.73;1.43;;;;;;;;;;4332001;33;20456;-79
2021/04/12 00:11:35;;;;;;;3.40;1.73;;;;;;;;;;4330349;33;20187;-79
2021/04/12 00:14:03;;;;;;;4.63;1.70;;;;;;;;;;4331788;33;20209;-79
2021/04/12 00:16:34;;;;;;;2.90;1.47;;;;;;;;;;4331467;33;20194;-78
2021/04/12 00:19:06;;;;;;;1.53;1.40;;;;;;;;;;4331619;33;20144;-78
2021/04/12 00:21:43;;;;;;;5.07;1.67;;;;;;;;;;4330224;33;20660;-78
2021/04/12 00:24:23;;;;;;;3.70;1.53;;;;;;;;;;4331884;33;20158;-79
2021/04/12 00:26:57;;;;;;;3.57;1.70;;;;;;;;;;4330359;33;20198;-79
2021/04/12 00:29:30;;;;;;;3.57;1.10;;;;;;;;;;4332014;33;20169;-78
2021/04/12 00:32:02;;;;;;;3.77;1.60;;;;;;;;;;4331502;33;20136;-78
2021/04/12 00:34:30;;;;;;;3.80;1.57;;;;;;;;;;4331601;33;20144;-79
2021/04/12 00:37:02;;;;;;;3.67;1.67;;;;;;;;;;4331317;33;20553;-79
2021/04/12 00:39:42;;;;;;;3.93;1.50;;;;;;;;;;4331153;33;20224;-78
2021/04/12 00:42:19;;;;;;;4.63;1.40;;;;;;;;;;4331215;33;20132;-79
2021/04/12 00:44:58;;;;;;;3.40;1.40;;;;;;;;;;4331604;33;20153;-79
2021/04/12 00:47:33;;;;;;;6.03;1.60;;;;;;;;;;4331471;33;20140;-79
2021/04/12 00:49:58;;;;;;;3.80;1.60;;;;;;;;;;4331535;33;20153;-79
2021/04/12 00:52:36;;;;;;;2.87;1.40;;;;;;;;;;4331099;33;20148;-79
2021/04/12 00:55:11;;;;;;;2.47;1.30;;;;;;;;;;4331604;33;20179;-79
2021/04/12 00:57:40;;;;;;;4.23;1.50;;;;;;;;;;4331349;33;20222;-79
2021/04/12 01:00:17;;;;;;;3.90;1.30;;;;;;;;;;4331044;33;20159;-79
2021/04/12 01:02:48;;;;;;;2.97;1.57;;;;;;;;;;4332087;33;20132;-79
2021/04/12 01:05:25;;;;;;;2.23;1.10;;;;;;;;;;4331617;33;20172;-79
2021/04/12 01:08:09;;;;;;;5.33;1.33;;;;;;;;;;4331552;33;20166;-79
2021/04/12 01:10:40;;;;;;;2.63;1.37;;;;;;;;;;4329600;33;20175;-79
2021/04/12 01:13:41;;;;;;;3.00;1.40;;;;;;;;;;4330898;33;20470;-79
2021/04/12 01:16:28;;;;;;;4.00;1.67;;;;;;;;;;4331049;33;20178;-79
2021/04/12 01:19:01;;;;;;;2.13;1.37;;;;;;;;;;4329909;33;20159;-79
2021/04/12 01:21:45;;;;;;;1.63;1.20;;;;;;;;;;4331093;33;20191;-79
2021/04/12 01:24:16;;;;;;;3.23;1.20;;;;;;;;;;4330906;33;20265;-79
2021/04/12 01:26:50;;;;;;;4.50;1.30;;;;;;;;;;4331169;33;20564;-79
2021/04/12 01:29:24;;;;;;;1.87;0.90;;;;;;;;;;4330666;33;20171;-79
2021/04/12 01:32:04;;;;;;;1.87;0.87;;;;;;;;;;4331293;33;20140;-79
2021/04/12 01:34:29;;;;;;;3.17;1.07;;;;;;;;;;4330657;33;20498;-79
2021/04/12 01:36:54;;;;;;;2.57;1.10;;;;;;;;;;4330421;33;20186;-79
2021/04/12 01:39:35;;;;;;;2.73;1.20;;;;;;;;;;4328815;33;20187;-81
2021/04/12 01:42:15;;;;;;;1.20;1.10;;;;;;;;;;4330903;33;20167;-81
2021/04/12 01:44:46;;;;;;;2.87;0.90;;;;;;;;;;4331191;33;20160;-81
2021/04/12 01:47:21;;;;;;;1.60;0.87;;;;;;;;;;4331029;33;20132;-81
2021/04/12 01:49:59;;;;;;;2.87;0.70;;;;;;;;;;4331051;33;20143;-81
2021/04/12 01:52:33;;;;;;;2.93;1.00;;;;;;;;;;4329510;33;20171;-81
2021/04/12 01:55:10;;;;;;;1.77;0.80;;;;;;;;;;4330669;33;20144;-80
2021/04/12 01:57:55;;;;;;;1.93;0.90;;;;;;;;;;4330334;33;20159;-80
2021/04/12 02:00:30;;;;;;;1.97;0.60;;;;;;;;;;4331072;33;20189;-79
2021/04/12 02:03:17;;;;;;;1.70;0.80;;;;;;;;;;4330815;33;20238;-78
2021/04/12 02:05:53;;;;;;;1.93;0.60;;;;;;;;;;4330542;33;20171;-79
2021/04/12 02:08:52;;;;;;;0.83;0.60;;;;;;;;;;4329589;33;20192;-79
2021/04/12 02:11:45;;;;;;;0.50;0.50;;;;;;;;;;4330848;33;20163;-79
2021/04/12 02:14:39;;;;;;;1.03;0.53;;;;;;;;;;4330035;33;20217;-79
2021/04/12 02:17:42;;;;;;;1.00;0.50;;;;;;;;;;4330531;33;20140;-79
2021/04/12 02:23:27;;;;;;;0.90;0.53;;;;;;;;;;4265968;33;20636;-78
2021/04/12 02:26:15;;;;;;;1.50;0.53;;;;;;;;;;4317076;33;20573;-80
2021/04/12 02:29:02;;;;;;;1.43;0.60;;;;;;;;;;4330809;33;20187;-79
2021/04/12 02:31:37;;;;;;;1.40;0.53;;;;;;;;;;4329353;33;20210;-80
2021/04/12 02:34:20;;;;;;;1.60;0.60;;;;;;;;;;4330796;33;20166;-80
2021/04/12 02:36:52;;;;;;;2.40;0.60;;;;;;;;;;4329289;33;20505;-79
2021/04/12 02:39:17;;;;;;;0.60;0.60;;;;;;;;;;4330465;33;20228;-80
2021/04/12 02:42:01;;;;;;;1.57;0.80;;;;;;;;;;4330273;33;20451;-80
2021/04/12 02:44:30;;;;;;;2.20;0.70;;;;;;;;;;4330042;33;20179;-79
2021/04/12 02:47:01;;;;;;;0.77;0.60;;;;;;;;;;4330139;33;20136;-79
2021/04/12 02:49:39;;;;;;;1.30;0.63;;;;;;;;;;4329581;33;20257;-79
2021/04/12 02:52:23;;;;;;;0.63;0.50;;;;;;;;;;4333071;33;20170;-80
2021/04/12 02:54:57;;;;;;;1.03;0.77;;;;;;;;;;4331520;33;20167;-80
2021/04/12 02:57:38;;;;;;;1.33;0.70;;;;;;;;;;4332333;33;20155;-80
2021/04/12 03:00:10;;;;;;;1.30;0.80;;;;;;;;;;4332587;33;20147;-79
2021/04/12 03:02:46;;;;;;;0.87;0.60;;;;;;;;;;4333145;33;20182;-79
2021/04/12 03:05:26;;;;;;;1.57;0.60;;;;;;;;;;4333188;33;20182;-80
2021/04/12 03:08:01;;;;;;;1.80;0.80;;;;;;;;;;4331963;33;20163;-80
2021/04/12 03:10:47;;;;;;;3.43;0.80;;;;;;;;;;4343936;33;20187;-79
2021/04/12 03:13:27;;;;;;;1.63;0.80;;;;;;;;;;4332577;33;20167;-79
2021/04/12 03:16:07;;;;;;;2.97;0.80;;;;;;;;;;4333034;33;20132;-79
2021/04/12 03:18:44;;;;;;;2.40;0.80;;;;;;;;;;4332617;33;20499;-80
2021/04/12 03:21:44;;;;;;;2.37;0.90;;;;;;;;;;4332857;33;20159;-80
2021/04/12 03:24:43;;;;;;;;;;;;;;;;;;;;;
2021/04/12 03:27:14;;;;;;;2.83;1.03;;;;;;;;;;4332753;33;20159;-80
2021/04/12 03:29:58;;;;;;;4.20;1.30;;;;;;;;;;4343308;33;20167;-79
2021/04/12 03:32:42;;;;;;;3.20;1.20;;;;;;;;;;4332712;33;20140;-78
2021/04/12 03:35:38;;;;;;;2.80;1.10;;;;;;;;;;4332458;33;20163;-79
2021/04/12 03:38:25;;;;;;;3.93;1.13;;;;;;;;;;4332274;33;20151;-79
2021/04/12 03:41:06;;;;;;;2.27;1.30;;;;;;;;;;4332289;33;20213;-79
2021/04/12 03:43:43;;;;;;;3.53;1.63;;;;;;;;;;4332290;33;20462;-80
2021/04/12 03:46:18;;;;;;;1.97;1.33;;;;;;;;;;4332162;33;20562;-80
2021/04/12 03:49:05;;;;;;;2.40;1.23;;;;;;;;;;4331963;33;20472;-79
2021/04/12 03:51:52;;;;;;;2.37;1.50;;;;;;;;;;4330921;33;20190;-80
2021/04/12 03:54:26;;;;;;;3.77;1.80;;;;;;;;;;4331679;33;20214;-78
2021/04/12 03:57:43;;;;;;;5.37;2.00;;;;;;;;;;4333224;33;20190;-78
2021/04/12 04:03:45;;;;;;;4.80;1.70;;;;;;;;;;4298503;33;20174;-79
2021/04/12 04:18:57;;;;;;;3.47;2.00;;;;;;;;;;4286042;33;20174;-78
2021/04/12 04:21:51;;;;;;;2.70;2.00;;;;;;;;;;4286353;33;20137;-80
2021/04/12 04:24:38;;;;;;;6.10;2.80;;;;;;;;;;4285698;33;20242;-79
2021/04/12 04:27:32;;;;;;;;;;;;;;;;;;;;;
2021/04/12 04:42:08;;;;;;;6.27;2.40;;;;;;;;;;4285843;33;20271;-78
2021/04/12 04:44:58;;;;;;;6.60;2.77;;;;;;;;;;4285881;33;20128;-79
2021/04/12 04:47:53;;;;;;;;;;;;;;;;;;;;;
2021/04/12 04:50:54;;;;;;;;;;;;;;;;;;;;;
2021/04/12 04:54:39;;;;;;;7.23;2.40;;;;;;;;;;4271707;33;20121;-79
2021/04/12 04:56:59;;;;;;;6.10;2.33;;;;;;;;;;4270937;33;20169;-79
2021/04/12 04:59:43;;;;;;;5.50;2.33;;;;;;;;;;4271183;33;20165;-79
2021/04/12 05:05:39;;;;;;;5.23;2.33;;;;;;;;;;4311299;33;20187;-79
2021/04/12 05:08:22;;;;;;;5.57;2.13;;;;;;;;;;4330874;33;20140;-79
2021/04/12 05:14:11;;;;;;;4.70;2.20;;;;;;;;;;4323368;33;20167;-78
2021/04/12 05:17:04;;;;;;;4.40;2.40;;;;;;;;;;4317909;33;20214;-80
2021/04/12 05:19:50;;;;;;;3.97;2.10;;;;;;;;;;4329567;33;20152;-78
2021/04/12 05:22:18;;;;;;;6.27;2.60;;;;;;;;;;4331332;33;20127;-77
2021/04/12 05:24:57;;;;;;;7.47;2.43;;;;;;;;;;4330550;33;20538;-78
2021/04/12 05:28:28;;;;;;;4.57;2.40;;;;;;;;;;4330820;33;20124;-79
2021/04/12 05:30:59;;;;;;;10.83;2.67;;;;;;;;;;4316109;33;20715;-80
2021/04/12 05:33:47;;;;;;;4.67;2.20;;;;;;;;;;4328678;33;20239;-79
2021/04/12 05:36:25;;;;;;;6.87;2.50;;;;;;;;;;4329723;33;20151;-79
2021/04/12 05:38:56;;;;;;;3.83;2.30;;;;;;;;;;4330507;33;20124;-79
2021/04/12 05:41:33;;;;;;;4.43;2.43;;;;;;;;;;4328999;33;20207;-77
2021/04/12 05:44:19;;;;;;;3.07;1.93;;;;;;;;;;4329413;33;20198;-79
2021/04/12 05:47:01;;;;;;;8.83;2.03;;;;;;;;;;4316725;33;20182;-79
2021/04/12 05:49:36;;;;;;;7.93;2.00;;;;;;;;;;4329084;33;20183;-79
2021/04/12 05:52:20;;;;;;;4.37;1.40;;;;;;;;;;4329084;33;20167;-78
2021/04/12 05:55:04;;;;;;;3.60;1.40;;;;;;;;;;4328399;33;20190;-79
2021/04/12 05:58:06;;;;;;;3.77;1.50;;;;;;;;;;4328665;33;20171;-77
2021/04/12 06:00:48;;;;;;;3.57;1.40;;;;;;;;;;4298891;33;20263;-78
2021/04/12 06:03:29;;;;;;;2.93;1.80;;;;;;;;;;4326731;33;20186;-78
2021/04/12 06:06:35;;;;;;;2.87;1.90;;;;;;;;;;4317479;33;20163;-76
2021/04/12 06:09:28;;;;;;;4.23;2.00;;;;;;;;;;4328979;33;20152;-77
2021/04/12 06:11:54;;;;;;;3.40;2.10;;;;;;;;;;4328715;33;20647;-76
2021/04/12 06:14:25;;;;;;;8.00;2.70;;;;;;;;;;4326135;33;20156;-76
2021/04/12 06:17:10;;;;;;;6.03;2.97;;;;;;;;;;4327220;33;20168;-76
2021/04/12 06:19:51;;;;;;;4.40;2.90;;;;;;;;;;4316693;33;20240;-75
2021/04/12 06:22:35;;;;;;;5.63;3.07;;;;;;;;;;4317190;33;20221;-75
2021/04/12 06:25:53;;;;;;;6.73;3.37;;;;;;;;;;4329218;33;20205;-75
2021/04/12 06:32:14;;;;;;;6.43;3.13;;;;;;;;;;4286801;33;20179;-75
2021/04/12 06:38:00;;;;;;;9.50;4.43;;;;;;;;;;4287076;33;20213;-75
2021/04/12 06:41:05;;;;;;;7.97;4.73;;;;;;;;;;4319839;33;20172;-74
2021/04/12 06:43:38;;;;;;;5.97;3.57;;;;;;;;;;4332726;33;20175;-76
2021/04/12 06:46:15;;;;;;;8.60;4.17;;;;;;;;;;4331683;33;20175;-75
2021/04/12 06:48:51;;;;;;;;;;;;;;;;;;;;;
2021/04/12 06:51:39;;;;;;;6.53;3.37;;;;;;;;;;4330080;33;20187;-76
2021/04/12 06:57:40;;;;;;;6.67;3.87;;;;;;;;;;4332966;33;20266;-76
2021/04/12 07:00:15;;;;;;;5.27;3.50;;;;;;;;;;4303629;33;20183;-75
2021/04/12 07:02:53;;;;;;;5.57;3.37;;;;;;;;;;4299673;33;20167;-76
2021/04/12 07:05:40;;;;;;;5.87;3.67;;;;;;;;;;4313850;33;20522;-78
2021/04/12 07:08:27;;;;;;;6.50;3.50;;;;;;;;;;4274851;33;20255;-78
2021/04/12 07:11:17;;;;;;;4.77;3.27;;;;;;;;;;4286053;33;20161;-77
2021/04/12 07:14:04;;;;;;;6.90;3.10;;;;;;;;;;4276958;33;20164;-78
2021/04/12 07:23:17;;;;;;;8.27;3.87;;;;;;;;;;4286538;33;20197;-77
2021/04/12 07:26:12;;;;;;;5.87;3.97;;;;;;;;;;4314699;33;20183;-76
2021/04/12 07:29:02;;;;;;;7.57;4.00;;;;;;;;;;4289981;33;20152;-76
2021/04/12 07:34:54;;;;;;;11.47;4.60;;;;;;;;;;4310827;33;20672;-70
2021/04/12 07:37:46;;;;;;;8.90;4.53;;;;;;;;;;4313666;33;20167;-72
2021/04/12 07:40:30;;;;;;;9.10;4.30;;;;;;;;;;4289231;33;20183;-71
2021/04/12 07:43:22;;;;;;;7.77;3.53;;;;;;;;;;4300927;33;20203;-71
2021/04/12 07:46:12;;;;;;;6.77;3.63;;;;;;;;;;4307332;33;20164;-71
2021/04/12 07:48:56;;;;;;;7.30;4.10;;;;;;;;;;4304134;33;20629;-71
2021/04/12 07:54:54;;;;;;;7.80;3.67;;;;;;;;;;4313215;33;20199;-70
2021/04/12 07:57:44;;;;;;;8.53;4.23;;;;;;;;;;4317138;33;20219;-71
2021/04/12 08:00:28;;;;;;;8.77;4.17;;;;;;;;;;4317700;33;20172;-73
2021/04/12 08:03:12;;;;;;;5.67;3.57;;;;;;;;;;4325709;33;20635;-71
2021/04/12 08:05:44;;;;;;;7.47;4.03;;;;;;;;;;4317942;33;20159;-71
2021/04/12 08:14:29;;;;;;;;;;;;;;;;;;;;;
2021/04/12 08:17:07;;;;;;;11.50;5.27;;;;;;;;;;4329289;33;20182;-72
2021/04/12 08:20:01;;;;;;;;;;;;;;;;;;;;;
2021/04/12 08:26:04;;;;;;;12.77;6.97;;;;;;;;;;4331066;33;20190;-71
2021/04/12 08:28:55;;;;;;;14.90;7.90;;;;;;;;;;4328562;33;20279;-73
2021/04/12 08:31:56;;;;;;;17.07;9.77;;;;;;;;;;4323676;33;20240;-72
2021/04/12 08:34:38;;;;;;;18.20;8.77;;;;;;;;;;4322038;33;20174;-71
2021/04/12 08:37:15;;;;;;;17.50;9.50;;;;;;;;;;4330404;33;20335;-68
2021/04/12 08:40:07;;;;;;;18.43;9.43;;;;;;;;;;4330772;33;20163;-70
2021/04/12 08:43:01;;;;;;;19.10;10.50;;;;;;;;;;4331163;33;20128;-70
2021/04/12 08:45:29;;;;;;;19.30;9.73;;;;;;;;;;4317196;33;20573;-71
2021/04/12 08:48:07;;;;;;;12.87;8.33;;;;;;;;;;4330663;33;20155;-72
2021/04/12 08:51:27;;;;;;;11.63;6.40;;;;;;;;;;4331051;33;20170;-72
2021/04/12 08:54:26;;;;;;;10.57;7.07;;;;;;;;;;4285122;33;20161;-71
2021/04/12 08:56:54;;;;;;;14.80;7.67;;;;;;;;;;4282656;33;20168;-71
2021/04/12 08:59:46;;;;;;;13.03;7.00;;;;;;;;;;4328183;33;20233;-71
2021/04/12 09:02:49;;;;;;;10.27;6.63;;;;;;;;;;4329197;33;20164;-71
2021/04/12 09:05:33;;;;;;;12.57;7.83;;;;;;;;;;4315338;33;20198;-70
2021/04/12 09:08:17;;;;;;;12.13;7.87;;;;;;;;;;4314894;33;20222;-71
2021/04/12 09:11:04;;;;;;;13.13;7.70;;;;;;;;;;4324100;33;20163;-72
2021/04/12 09:13:49;;;;;;;11.57;7.43;;;;;;;;;;4327628;33;20184;-72
2021/04/12 09:16:42;;;;;;;18.23;8.63;;;;;;;;;;4320569;33;20160;-71
2021/04/12 09:19:26;;;;;;;12.43;7.73;;;;;;;;;;4329544;33;20236;-70
2021/04/12 09:22:13;;;;;;;10.60;6.70;;;;;;;;;;4330668;33;20153;-71
2021/04/12 09:24:57;;;;;;;12.13;6.73;;;;;;;;;;4323490;33;20207;-71
2021/04/12 09:27:50;;;;;;;9.43;6.13;;;;;;;;;;4329586;33;20148;-70
2021/04/12 09:30:45;;;;;;;7.87;5.33;;;;;;;;;;4315570;33;20210;-71
2021/04/12 09:33:32;;;;;;;6.00;4.23;;;;;;;;;;4329837;33;20147;-71
2021/04/12 09:36:06;;;;;;;6.10;4.07;;;;;;;;;;4323075;33;20203;-71
2021/04/12 09:38:51;;;;;;;4.97;3.83;;;;;;;;;;4328489;33;20177;-71
2021/04/12 09:41:44;;;;;;;7.07;4.20;;;;;;;;;;4322541;33;20584;-72
2021/04/12 09:44:28;;;;;;;4.43;2.90;;;;;;;;;;4339727;33;20171;-71
2021/04/12 09:47:21;;;;;;;5.40;3.10;;;;;;;;;;4329718;33;20207;-73
2021/04/12 09:50:09;;;;;;;4.60;2.80;;;;;;;;;;4329231;33;20190;-71
2021/04/12 09:52:53;;;;;;;4.93;2.30;;;;;;;;;;4328110;33;20172;-71
2021/04/12 09:55:38;;;;;;;3.03;1.80;;;;;;;;;;4329705;33;20178;-73
2021/04/12 09:58:23;;;;;;;4.10;1.97;;;;;;;;;;4326024;33;20228;-72
2021/04/12 10:01:07;;;;;;;2.20;2.00;;;;;;;;;;4314008;33;20159;-72
2021/04/12 10:03:32;;;;;;;3.47;2.37;;;;;;;;;;4328073;33;20167;-72
2021/04/12 10:06:16;;;;;;;2.90;1.83;;;;;;;;;;4326247;33;20294;-70
2021/04/12 10:08:42;;;;;;;2.17;1.90;;;;;;;;;;4328269;33;20157;-71
2021/04/12 10:11:18;;;;;;;3.23;2.00;;;;;;;;;;4328963;33;20252;-71
2021/04/12 10:14:07;;;;;;;2.60;1.90;;;;;;;;;;4328761;33;20608;-72
2021/04/12 10:16:47;;;;;;;3.57;1.90;;;;;;;;;;4329853;33;20159;-71
2021/04/12 10:19:16;;;;;;;2.80;2.00;;;;;;;;;;4307821;33;20155;-71
2021/04/12 10:21:56;;;;;;;3.70;1.90;;;;;;;;;;4327588;33;20186;-70
2021/04/12 10:24:40;;;;;;;3.93;1.80;;;;;;;;;;4328914;33;20262;-72
2021/04/12 10:27:19;;;;;;;2.90;1.90;;;;;;;;;;4329463;33;20177;-71
2021/04/12 10:29:55;;;;;;;4.10;1.80;;;;;;;;;;4328757;33;20132;-72
2021/04/12 10:32:30;;;;;;;2.70;1.70;;;;;;;;;;4327946;33;20152;-70
2021/04/12 10:34:55;;;;;;;3.30;1.60;;;;;;;;;;4327516;33;20229;-70
2021/04/12 10:37:37;;;;;;;5.40;1.70;;;;;;;;;;4329779;33;20148;-71
2021/04/12 10:40:23;;;;;;;2.93;1.73;;;;;;;;;;4327846;33;20164;-72
2021/04/12 10:43:07;;;;;;;4.43;2.07;;;;;;;;;;4319152;33;20136;-72
2021/04/12 10:45:42;;;;;;;2.93;1.80;;;;;;;;;;4317898;33;20510;-71
2021/04/12 10:48:18;;;;;;;6.37;2.20;;;;;;;;;;4334704;33;20169;-71
2021/04/12 10:50:58;;;;;;;6.17;2.20;;;;;;;;;;4328112;33;20160;-70
2021/04/12 10:53:36;;;;;;;4.83;2.30;;;;;;;;;;4329131;33;20494;-70
2021/04/12 10:56:37;;;;;;;6.80;2.47;;;;;;;;;;4329124;33;20148;-72
2021/04/12 10:59:05;;;;;;;7.17;2.50;;;;;;;;;;4292471;33;20168;-70
2021/04/12 11:02:06;;;;;;;5.60;2.60;;;;;;;;;;4319940;33;20164;-69
2021/04/12 11:04:37;;;;;;;3.83;2.30;;;;;;;;;;4325995;33;20176;-72
2021/04/12 11:07:13;;;;;;;5.10;2.00;;;;;;;;;;4329003;33;20166;-71
2021/04/12 11:09:44;;;;;;;4.83;1.90;;;;;;;;;;4329323;33;20178;-72
2021/04/12 11:12:22;;;;;;;3.17;1.80;;;;;;;;;;4328640;33;20156;-72
2021/04/12 11:15:05;;;;;;;4.17;1.80;;;;;;;;;;4317168;33;20588;-73
2021/04/12 11:17:41;;;;;;;2.97;1.33;;;;;;;;;;4331171;33;20136;-71
2021/04/12 11:20:07;;;;;;;2.20;1.20;;;;;;;;;;4331216;33;20545;-69
2021/04/12 11:22:46;;;;;;;3.80;1.27;;;;;;;;;;4329408;33;20148;-71
2021/04/12 11:25:21;;;;;;;1.40;0.98;;;;;;;;;;4318525;33;20124;-71
2021/04/12 11:27:59;;;;;;;2.03;1.00;;;;;;;;;;4329988;33;20155;-71
2021/04/12 11:30:25;;;;;;;1.90;1.10;;;;;;;;;;4330962;33;20217;-70
2021/04/12 11:33:16;;;;;;;3.55;1.23;;;;;;;;;;4317141;33;20491;-71
2021/04/12 11:35:56;;;;;;;2.10;1.50;;;;;;;;;;4325637;33;20167;-71
2021/04/12 11:38:25;;;;;;;2.83;1.40;;;;;;;;;;4328538;33;20155;-68
2021/04/12 11:41:02;;;;;;;4.03;1.12;;;;;;;;;;4330702;33;20206;-72
2021/04/12 11:43:29;;;;;;;4.95;1.55;;;;;;;;;;4331002;33;20230;-69
2021/04/12 11:46:00;;;;;;;3.55;1.20;;;;;;;;;;4328958;33;20194;-70
2021/04/12 11:48:36;;;;;;;2.75;1.23;;;;;;;;;;4330919;33;20136;-71
2021/04/12 11:51:10;;;;;;;3.75;1.35;;;;;;;;;;4327584;33;20484;-72
2021/04/12 11:53:38;;;;;;;2.85;1.30;;;;;;;;;;4326419;33;20151;-70
2021/04/12 11:56:04;;;;;;;2.50;1.20;;;;;;;;;;4328290;33;20223;-72
2021/04/12 11:58:29;;;;;;;4.68;1.30;;;;;;;;;;4330197;33;20701;-72
2021/04/12 12:00:55;;;;;;;3.53;1.10;;;;;;;;;;4329376;33;20163;-71
2021/04/12 12:03:39;;;;;;;3.95;1.10;;;;;;;;;;4317374;33;20206;-71
2021/04/12 12:06:07;;;;;;;2.70;1.20;;;;;;;;;;4329635;33;20214;-72
2021/04/12 12:08:47;;;;;;;2.30;1.10;;;;;;;;;;4329045;33;20263;-71
2021/04/12 12:11:17;;;;;;;3.08;1.30;;;;;;;;;;4330799;33;20182;-72
2021/04/12 12:13:43;;;;;;;5.95;1.33;;;;;;;;;;4317449;33;20156;-73
2021/04/12 12:16:26;;;;;;;3.12;1.40;;;;;;;;;;4330687;33;20166;-73
2021/04/12 12:18:54;;;;;;;2.97;1.50;;;;;;;;;;4316872;33;20172;-71
2021/04/12 12:21:23;;;;;;;3.28;1.65;;;;;;;;;;4326709;33;20152;-72
2021/04/12 12:23:57;;;;;;;3.87;1.55;;;;;;;;;;4315528;33;20129;-72
2021/04/12 12:26:25;;;;;;;2.80;1.35;;;;;;;;;;4326704;33;20139;-72
2021/04/12 12:29:10;;;;;;;2.35;1.60;;;;;;;;;;4317309;33;20152;-72
2021/04/12 12:31:39;;;;;;;4.65;1.37;;;;;;;;;;4326656;33;20163;-73
2021/04/12 12:34:07;;;;;;;2.87;1.60;;;;;;;;;;4330335;33;20217;-72
2021/04/12 12:36:40;;;;;;;4.82;1.85;;;;;;;;;;4328669;33;20156;-73
2021/04/12 12:39:08;;;;;;;4.97;2.20;;;;;;;;;;4329991;33;20147;-71
2021/04/12 12:41:42;;;;;;;4.77;2.03;;;;;;;;;;4329570;33;20156;-72
2021/04/12 12:44:10;;;;;;;4.77;2.80;;;;;;;;;;4329430;33;20143;-73
2021/04/12 12:46:36;;;;;;;4.70;2.07;;;;;;;;;;4313634;33;20159;-73
2021/04/12 12:49:05;;;;;;;3.83;2.10;;;;;;;;;;4326888;33;20214;-72
2021/04/12 12:51:34;;;;;;;4.27;2.20;;;;;;;;;;4328586;33;20644;-71
2021/04/12 12:54:03;;;;;;;4.60;2.57;;;;;;;;;;4312021;33;20246;-73
2021/04/12 12:56:29;;;;;;;4.47;2.67;;;;;;;;;;4320750;33;20167;-69
2021/04/12 12:58:56;;;;;;;3.43;1.67;;;;;;;;;;4317310;33;20258;-75
2021/04/12 13:01:40;;;;;;;6.32;2.10;;;;;;;;;;4312193;33;20183;-75
2021/04/12 13:04:16;;;;;;;4.72;1.95;;;;;;;;;;4340251;33;20298;-73
2021/04/12 13:06:42;;;;;;;4.20;1.90;;;;;;;;;;4251602;33;20167;-73
2021/04/12 13:09:19;;;;;;;2.40;1.83;;;;;;;;;;4294335;33;20241;-72
2021/04/12 13:11:52;;;;;;;5.80;2.50;;;;;;;;;;4154225;33;20166;-76
2021/04/12 13:14:26;;;;;;;4.62;2.08;;;;;;;;;;4282059;33;20192;-73
2021/04/12 13:16:54;;;;;;;4.35;2.15;;;;;;;;;;4234854;33;20570;-71
2021/04/12 13:19:20;;;;;;;3.35;2.03;;;;;;;;;;4316815;33;20672;-72
2021/04/12 13:21:48;;;;;;;3.45;2.00;;;;;;;;;;4148831;33;20308;-76
2021/04/12 13:24:24;;;;;;;5.60;2.30;;;;;;;;;;4128442;33;20547;-76
2021/04/12 13:26:50;;;;;;;4.18;1.77;;;;;;;;;;4133870;33;20733;-78
2021/04/12 13:29:20;;;;;;;6.60;1.60;;;;;;;;;;4255897;33;20171;-72
2021/04/12 13:31:46;;;;;;;4.20;1.42;;;;;;;;;;4242568;33;21206;-76
2021/04/12 13:34:17;;;;;;;5.78;1.48;;;;;;;;;;4178124;33;20565;-74
2021/04/12 13:36:50;;;;;;;2.37;1.30;;;;;;;;;;4177869;33;20878;-76
2021/04/12 13:39:20;;;;;;;3.53;1.45;;;;;;;;;;4317436;33;20164;-73
2021/04/12 13:41:47;;;;;;;3.15;1.50;;;;;;;;;;4242271;33;20580;-73
2021/04/12 13:44:15;;;;;;;2.92;1.33;;;;;;;;;;4328562;33;20605;-72
2021/04/12 13:46:49;;;;;;;1.50;1.08;;;;;;;;;;4239310;33;20435;-72
2021/04/12 13:49:20;;;;;;;5.47;1.40;;;;;;;;;;4257654;33;20584;-72
2021/04/12 13:51:54;;;;;;;3.33;1.42;;;;;;;;;;4311463;33;20447;-75
2021/04/12 13:54:26;;;;;;;5.40;1.80;;;;;;;;;;4221245;33;21061;-75
2021/04/12 13:56:53;;;;;;;4.60;1.60;;;;;;;;;;4221027;33;20427;-74
2021/04/12 13:59:23;;;;;;;2.47;1.85;;;;;;;;;;4222244;33;20656;-74
2021/04/12 14:01:54;;;;;;;3.58;1.70;;;;;;;;;;4208555;33;20704;-73
2021/04/12 14:04:23;;;;;;;6.82;2.03;;;;;;;;;;4219250;33;20148;-76
2021/04/12 14:07:08;;;;;;;4.28;1.60;;;;;;;;;;4219708;33;20552;-75
2021/04/12 14:09:39;;;;;;;6.68;1.55;;;;;;;;;;4223791;33;20266;-74
2021/04/12 14:12:04;;;;;;;3.58;1.62;;;;;;;;;;4228794;33;20907;-74
2021/04/12 14:14:32;;;;;;;3.95;1.70;;;;;;;;;;4222588;33;20546;-76
2021/04/12 14:17:00;;;;;;;2.67;1.50;;;;;;;;;;4222431;33;20882;-76
2021/04/12 14:19:27;;;;;;;2.10;1.50;;;;;;;;;;4219811;33;20564;-74
2021/04/12 14:22:01;;;;;;;3.35;1.50;;;;;;;;;;4222620;33;20750;-73
2021/04/12 14:24:30;;;;;;;4.30;1.60;;;;;;;;;;4219994;33;21097;-75
2021/04/12 14:27:03;;;;;;;3.37;1.60;;;;;;;;;;4208859;33;20716;-75
2021/04/12 14:29:36;;;;;;;4.22;1.65;;;;;;;;;;4220912;33;20225;-75
2021/04/12 14:32:07;;;;;;;5.50;1.70;;;;;;;;;;4229264;33;20689;-75
2021/04/12 14:34:43;;;;;;;3.23;1.73;;;;;;;;;;4221900;33;20569;-72
2021/04/12 14:37:16;;;;;;;3.37;1.87;;;;;;;;;;4218702;33;20498;-75
2021/04/12 14:39:42;;;;;;;3.17;1.60;;;;;;;;;;4219270;33;20548;-76
2021/04/12 14:42:12;;;;;;;2.77;1.67;;;;;;;;;;4214230;33;21133;-76
2021/04/12 14:44:40;;;;;;;4.07;2.00;;;;;;;;;;4222063;33;20516;-71
2021/04/12 14:47:12;;;;;;;4.80;1.52;;;;;;;;;;4222453;33;20363;-75
2021/04/12 14:49:40;;;;;;;1.45;1.10;;;;;;;;;;4214129;33;20659;-76
2021/04/12 14:52:09;;;;;;;2.12;1.20;;;;;;;;;;4229484;33;20262;-75
2021/04/12 14:54:35;;;;;;;4.40;1.60;;;;;;;;;;4225137;33;20723;-76
2021/04/12 14:57:13;;;;;;;3.33;1.70;;;;;;;;;;4223551;33;20447;-72
2021/04/12 15:00:01;;;;;;;3.72;1.77;;;;;;;;;;4204975;33;21049;-75
2021/04/12 15:02:34;;;;;;;3.95;1.58;;;;;;;;;;4209993;33;20602;-76
2021/04/12 15:05:07;;;;;;;2.33;1.70;;;;;;;;;;4223745;33;20458;-76
2021/04/12 15:07:46;;;;;;;3.55;1.70;;;;;;;;;;4224624;33;20589;-75
2021/04/12 15:10:18;;;;;;;4.18;1.77;;;;;;;;;;4269710;33;20144;-75
2021/04/12 15:12:47;;;;;;;2.53;1.60;;;;;;;;;;4273957;33;20230;-76
2021/04/12 15:15:17;;;;;;;5.43;1.80;;;;;;;;;;4273499;33;20156;-74
2021/04/12 15:17:46;;;;;;;4.68;2.12;;;;;;;;;;4271333;33;20230;-75
2021/04/12 15:20:15;;;;;;;4.75;2.30;;;;;;;;;;4266602;33;20254;-75
2021/04/12 15:22:40;;;;;;;4.10;1.98;;;;;;;;;;4269421;33;20163;-76
2021/04/12 15:25:07;;;;;;;5.00;2.10;;;;;;;;;;4270595;33;21040;-77
2021/04/12 15:27:32;;;;;;;3.08;1.85;;;;;;;;;;4268674;33;20198;-72
2021/04/12 15:30:07;;;;;;;3.75;1.90;;;;;;;;;;4269190;33;20172;-72
2021/04/12 15:32:35;;;;;;;4.22;2.20;;;;;;;;;;4269032;33;20218;-76
2021/04/12 15:35:02;;;;;;;4.05;2.37;;;;;;;;;;4268248;33;20588;-74
2021/04/12 15:37:29;;;;;;;7.28;2.50;;;;;;;;;;4275926;33;20233;-74
2021/04/12 15:40:04;;;;;;;5.37;2.50;;;;;;;;;;4266768;33;20167;-75
2021/04/12 15:42:31;;;;;;;3.95;2.53;;;;;;;;;;4273499;33;20151;-72
2021/04/12 15:45:04;;;;;;;4.10;2.78;;;;;;;;;;4268473;33;20155;-76
2021/04/12 15:47:31;;;;;;;5.60;2.80;;;;;;;;;;4268890;33;20274;-73
2021/04/12 15:50:17;;;;;;;5.60;2.72;;;;;;;;;;4269756;33;20144;-75
2021/04/12 15:52:51;;;;;;;6.15;2.78;;;;;;;;;;4274471;33;20159;-75
2021/04/12 15:55:20;;;;;;;5.53;2.65;;;;;;;;;;4267457;33;20179;-76
2021/04/12 15:57:46;;;;;;;4.28;2.87;;;;;;;;;;4272163;33;20230;-75
2021/04/12 16:00:26;;;;;;;7.68;4.32;;;;;;;;;;4253553;33;20305;-75
2021/04/12 16:02:58;;;;;;;4.53;2.90;;;;;;;;;;4266541;33;20653;-75
2021/04/12 16:05:28;;;;;;;7.10;3.20;;;;;;;;;;4272327;33;20145;-75
2021/04/12 16:07:54;;;;;;;6.22;2.78;;;;;;;;;;4268170;33;20222;-75
2021/04/12 16:10:19;;;;;;;7.40;3.20;;;;;;;;;;4268389;33;20156;-75
2021/04/12 16:12:53;;;;;;;8.97;3.40;;;;;;;;;;4272371;33;20139;-72
2021/04/12 16:15:30;;;;;;;6.30;3.20;;;;;;;;;;4269482;33;20580;-75
2021/04/12 16:17:59;;;;;;;6.17;2.97;;;;;;;;;;4270583;33;20699;-75
2021/04/12 16:20:39;;;;;;;7.67;3.07;;;;;;;;;;4266722;33;20174;-75
2021/04/12 16:23:07;;;;;;;6.68;3.30;;;;;;;;;;4271105;33;21404;-75
2021/04/12 16:25:41;;;;;;;9.07;3.40;;;;;;;;;;4263572;33;20298;-75
2021/04/12 16:28:12;;;;;;;4.82;2.72;;;;;;;;;;4265114;33;20164;-74
2021/04/12 16:30:37;;;;;;;4.90;2.30;;;;;;;;;;4266624;33;20577;-74
2021/04/12 16:33:05;;;;;;;3.22;2.10;;;;;;;;;;4270572;33;20737;-74
2021/04/12 16:35:35;;;;;;;5.43;2.08;;;;;;;;;;4264512;33;20160;-74
2021/04/12 16:38:00;;;;;;;2.65;1.83;;;;;;;;;;4265121;33;20623;-75
2021/04/12 16:40:27;;;;;;;5.03;2.10;;;;;;;;;;4291485;33;20155;-74
2021/04/12 16:43:03;;;;;;;3.25;1.70;;;;;;;;;;4324468;33;20186;-76
2021/04/12 16:45:31;;;;;;;4.43;2.17;;;;;;;;;;4260591;33;21159;-75
2021/04/12 16:48:04;;;;;;;5.03;1.87;;;;;;;;;;4265225;33;20151;-74
2021/04/12 16:50:32;;;;;;;5.28;2.33;;;;;;;;;;4264819;33;20207;-71
2021/04/12 16:52:59;;;;;;;4.87;2.25;;;;;;;;;;4253592;33;20211;-74
2021/04/12 16:55:27;;;;;;;2.15;1.80;;;;;;;;;;4255154;33;20223;-76
2021/04/12 16:57:54;;;;;;;4.62;1.87;;;;;;;;;;4273845;33;20293;-74
2021/04/12 17:00:21;;;;;;;4.82;1.85;;;;;;;;;;4327362;33;20190;-74
2021/04/12 17:03:06;;;;;;;3.62;1.92;;;;;;;;;;4328592;33;20269;-73